sensor_id;sensor_type;location;lat;lon;timestamp;P1;durP1;ratioP1;P2;durP2;ratioP2
25868;SDS011;13688;53.154;18.136;2023-04-06T00:01:37;23.38;;;10.75;;
25868;SDS011;13688;53.154;18.136;2023-04-06T00:07:00;25.75;;;11.75;;
25868;SDS011;13688;53.154;18.136;2023-04-06T00:12:24;21.62;;;11.30;;
25868;SDS011;13688;53.154;18.136;2023-04-06T00:17:46;19.50;;;11.20;;
25868;SDS011;13688;53.154;18.136;2023-04-06T00:23:09;27.00;;;12.23;;
25868;SDS011;13688;53.154;18.136;2023-04-06T00:28:31;27.62;;;12.95;;
25868;SDS011;13688;53.154;18.136;2023-04-06T00:33:57;33.48;;;13.65;;
25868;SDS011;13688;53.154;18.136;2023-04-06T00:39:20;25.35;;;13.13;;
25868;SDS011;13688;53.154;18.136;2023-04-06T00:44:42;26.12;;;13.10;;
25868;SDS011;13688;53.154;18.136;2023-04-06T00:50:05;26.68;;;12.50;;
25868;SDS011;13688;53.154;18.136;2023-04-06T00:55:28;28.17;;;13.03;;
25868;SDS011;13688;53.154;18.136;2023-04-06T01:00:50;25.90;;;12.45;;
25868;SDS011;13688;53.154;18.136;2023-04-06T01:06:16;29.63;;;13.28;;
25868;SDS011;13688;53.154;18.136;2023-04-06T01:11:38;27.73;;;12.95;;
25868;SDS011;13688;53.154;18.136;2023-04-06T01:17:00;25.43;;;12.25;;
25868;SDS011;13688;53.154;18.136;2023-04-06T01:22:23;26.93;;;12.23;;
25868;SDS011;13688;53.154;18.136;2023-04-06T01:27:46;25.55;;;11.97;;
25868;SDS011;13688;53.154;18.136;2023-04-06T01:33:08;24.45;;;12.23;;
25868;SDS011;13688;53.154;18.136;2023-04-06T01:38:31;24.80;;;12.23;;
25868;SDS011;13688;53.154;18.136;2023-04-06T01:43:54;28.07;;;13.55;;
25868;SDS011;13688;53.154;18.136;2023-04-06T01:49:18;23.95;;;12.40;;
25868;SDS011;13688;53.154;18.136;2023-04-06T01:54:41;25.32;;;12.82;;
25868;SDS011;13688;53.154;18.136;2023-04-06T02:00:04;25.55;;;12.45;;
25868;SDS011;13688;53.154;18.136;2023-04-06T02:05:28;27.02;;;13.40;;
25868;SDS011;13688;53.154;18.136;2023-04-06T02:10:51;28.95;;;12.88;;
25868;SDS011;13688;53.154;18.136;2023-04-06T02:16:14;28.50;;;13.35;;
25868;SDS011;13688;53.154;18.136;2023-04-06T02:21:36;27.75;;;12.43;;
25868;SDS011;13688;53.154;18.136;2023-04-06T02:26:59;29.82;;;13.18;;
25868;SDS011;13688;53.154;18.136;2023-04-06T02:32:21;26.52;;;12.28;;
25868;SDS011;13688;53.154;18.136;2023-04-06T02:37:43;29.75;;;12.85;;
25868;SDS011;13688;53.154;18.136;2023-04-06T02:43:06;28.30;;;12.23;;
25868;SDS011;13688;53.154;18.136;2023-04-06T02:48:28;23.95;;;11.68;;
25868;SDS011;13688;53.154;18.136;2023-04-06T02:53:51;27.37;;;12.05;;
25868;SDS011;13688;53.154;18.136;2023-04-06T02:59:13;28.67;;;12.13;;
25868;SDS011;13688;53.154;18.136;2023-04-06T03:04:36;30.65;;;13.08;;
25868;SDS011;13688;53.154;18.136;2023-04-06T03:09:58;24.00;;;12.45;;
25868;SDS011;13688;53.154;18.136;2023-04-06T03:15:21;24.98;;;12.55;;
25868;SDS011;13688;53.154;18.136;2023-04-06T03:20:44;25.52;;;12.47;;
25868;SDS011;13688;53.154;18.136;2023-04-06T03:26:06;28.12;;;13.50;;
25868;SDS011;13688;53.154;18.136;2023-04-06T03:31:29;32.00;;;14.58;;
25868;SDS011;13688;53.154;18.136;2023-04-06T03:36:52;30.70;;;14.05;;
25868;SDS011;13688;53.154;18.136;2023-04-06T03:42:15;33.55;;;15.00;;
25868;SDS011;13688;53.154;18.136;2023-04-06T03:47:37;29.80;;;12.68;;
25868;SDS011;13688;53.154;18.136;2023-04-06T03:52:59;24.45;;;12.70;;
25868;SDS011;13688;53.154;18.136;2023-04-06T03:58:22;27.30;;;13.48;;
25868;SDS011;13688;53.154;18.136;2023-04-06T04:03:44;30.25;;;13.60;;
25868;SDS011;13688;53.154;18.136;2023-04-06T04:09:06;27.93;;;13.45;;
25868;SDS011;13688;53.154;18.136;2023-04-06T04:14:30;27.93;;;12.18;;
25868;SDS011;13688;53.154;18.136;2023-04-06T04:19:53;31.37;;;12.85;;
25868;SDS011;13688;53.154;18.136;2023-04-06T04:25:16;27.70;;;12.58;;
25868;SDS011;13688;53.154;18.136;2023-04-06T04:30:39;25.88;;;11.88;;
25868;SDS011;13688;53.154;18.136;2023-04-06T04:36:02;21.60;;;10.70;;
25868;SDS011;13688;53.154;18.136;2023-04-06T04:41:24;18.27;;;9.70;;
25868;SDS011;13688;53.154;18.136;2023-04-06T04:46:46;22.58;;;10.63;;
25868;SDS011;13688;53.154;18.136;2023-04-06T04:52:09;22.52;;;11.18;;
25868;SDS011;13688;53.154;18.136;2023-04-06T04:57:31;21.23;;;10.20;;
25868;SDS011;13688;53.154;18.136;2023-04-06T05:02:53;26.07;;;11.43;;
25868;SDS011;13688;53.154;18.136;2023-04-06T05:08:16;25.62;;;11.20;;
25868;SDS011;13688;53.154;18.136;2023-04-06T05:13:38;24.45;;;11.88;;
25868;SDS011;13688;53.154;18.136;2023-04-06T05:19:01;23.20;;;11.20;;
25868;SDS011;13688;53.154;18.136;2023-04-06T05:24:23;23.55;;;11.08;;
25868;SDS011;13688;53.154;18.136;2023-04-06T05:29:46;26.02;;;11.03;;
25868;SDS011;13688;53.154;18.136;2023-04-06T05:35:08;21.20;;;11.33;;
25868;SDS011;13688;53.154;18.136;2023-04-06T05:40:31;24.10;;;12.07;;
25868;SDS011;13688;53.154;18.136;2023-04-06T05:45:53;25.23;;;12.50;;
25868;SDS011;13688;53.154;18.136;2023-04-06T05:51:16;29.12;;;13.45;;
25868;SDS011;13688;53.154;18.136;2023-04-06T05:56:38;23.70;;;12.73;;
25868;SDS011;13688;53.154;18.136;2023-04-06T06:02:01;23.95;;;12.30;;
25868;SDS011;13688;53.154;18.136;2023-04-06T06:07:23;35.33;;;14.28;;
25868;SDS011;13688;53.154;18.136;2023-04-06T06:12:46;31.45;;;14.50;;
25868;SDS011;13688;53.154;18.136;2023-04-06T06:18:08;27.98;;;14.18;;
25868;SDS011;13688;53.154;18.136;2023-04-06T06:23:31;32.53;;;14.43;;
25868;SDS011;13688;53.154;18.136;2023-04-06T06:28:54;25.62;;;13.85;;
25868;SDS011;13688;53.154;18.136;2023-04-06T06:34:17;32.75;;;14.15;;
25868;SDS011;13688;53.154;18.136;2023-04-06T06:39:39;31.97;;;14.43;;
25868;SDS011;13688;53.154;18.136;2023-04-06T06:45:02;27.87;;;14.30;;
25868;SDS011;13688;53.154;18.136;2023-04-06T06:50:25;26.82;;;12.45;;
25868;SDS011;13688;53.154;18.136;2023-04-06T06:55:47;26.07;;;12.65;;
25868;SDS011;13688;53.154;18.136;2023-04-06T07:01:09;23.00;;;11.88;;
25868;SDS011;13688;53.154;18.136;2023-04-06T07:06:32;23.45;;;12.50;;
25868;SDS011;13688;53.154;18.136;2023-04-06T07:11:56;23.70;;;12.13;;
25868;SDS011;13688;53.154;18.136;2023-04-06T07:17:20;21.90;;;11.30;;
25868;SDS011;13688;53.154;18.136;2023-04-06T07:22:44;20.00;;;9.70;;
25868;SDS011;13688;53.154;18.136;2023-04-06T07:28:06;18.50;;;9.30;;
25868;SDS011;13688;53.154;18.136;2023-04-06T07:33:30;15.80;;;7.90;;
25868;SDS011;13688;53.154;18.136;2023-04-06T07:38:53;13.83;;;7.03;;
25868;SDS011;13688;53.154;18.136;2023-04-06T07:44:16;14.60;;;7.40;;
25868;SDS011;13688;53.154;18.136;2023-04-06T07:49:38;11.43;;;5.92;;
25868;SDS011;13688;53.154;18.136;2023-04-06T07:55:01;8.98;;;5.25;;
25868;SDS011;13688;53.154;18.136;2023-04-06T08:00:23;6.08;;;3.85;;
25868;SDS011;13688;53.154;18.136;2023-04-06T08:05:46;7.95;;;4.62;;
25868;SDS011;13688;53.154;18.136;2023-04-06T08:11:10;3.83;;;2.58;;
25868;SDS011;13688;53.154;18.136;2023-04-06T08:16:32;9.93;;;4.17;;
25868;SDS011;13688;53.154;18.136;2023-04-06T08:21:54;4.80;;;3.02;;
25868;SDS011;13688;53.154;18.136;2023-04-06T08:27:17;6.80;;;3.80;;
25868;SDS011;13688;53.154;18.136;2023-04-06T08:32:39;5.83;;;4.08;;
25868;SDS011;13688;53.154;18.136;2023-04-06T08:38:02;7.42;;;3.55;;
25868;SDS011;13688;53.154;18.136;2023-04-06T08:43:24;6.67;;;4.37;;
25868;SDS011;13688;53.154;18.136;2023-04-06T08:48:53;6.60;;;3.35;;
25868;SDS011;13688;53.154;18.136;2023-04-06T08:54:17;16.42;;;9.58;;
25868;SDS011;13688;53.154;18.136;2023-04-06T08:59:40;9.35;;;5.72;;
25868;SDS011;13688;53.154;18.136;2023-04-06T09:05:03;11.03;;;5.35;;
25868;SDS011;13688;53.154;18.136;2023-04-06T09:10:26;10.32;;;5.37;;
25868;SDS011;13688;53.154;18.136;2023-04-06T09:16:03;11.05;;;5.53;;
25868;SDS011;13688;53.154;18.136;2023-04-06T09:21:27;9.58;;;5.67;;
25868;SDS011;13688;53.154;18.136;2023-04-06T09:26:49;8.23;;;5.55;;
25868;SDS011;13688;53.154;18.136;2023-04-06T09:32:12;8.50;;;5.60;;
25868;SDS011;13688;53.154;18.136;2023-04-06T09:37:34;10.13;;;6.15;;
25868;SDS011;13688;53.154;18.136;2023-04-06T09:42:59;11.33;;;6.28;;
25868;SDS011;13688;53.154;18.136;2023-04-06T09:48:21;25.80;;;15.10;;
25868;SDS011;13688;53.154;18.136;2023-04-06T09:53:45;9.30;;;5.15;;
25868;SDS011;13688;53.154;18.136;2023-04-06T09:59:13;9.50;;;5.80;;
25868;SDS011;13688;53.154;18.136;2023-04-06T10:05:02;9.75;;;5.40;;
25868;SDS011;13688;53.154;18.136;2023-04-06T10:10:37;7.87;;;4.92;;
25868;SDS011;13688;53.154;18.136;2023-04-06T10:16:00;8.45;;;4.75;;
25868;SDS011;13688;53.154;18.136;2023-04-06T10:21:24;9.55;;;5.28;;
25868;SDS011;13688;53.154;18.136;2023-04-06T10:27:00;9.53;;;4.50;;
25868;SDS011;13688;53.154;18.136;2023-04-06T10:32:31;9.15;;;4.87;;
25868;SDS011;13688;53.154;18.136;2023-04-06T10:37:51;10.45;;;5.15;;
25868;SDS011;13688;53.154;18.136;2023-04-06T10:43:19;8.45;;;5.00;;
25868;SDS011;13688;53.154;18.136;2023-04-06T10:48:45;6.70;;;4.62;;
25868;SDS011;13688;53.154;18.136;2023-04-06T10:54:08;8.30;;;4.45;;
25868;SDS011;13688;53.154;18.136;2023-04-06T10:59:32;9.40;;;5.03;;
25868;SDS011;13688;53.154;18.136;2023-04-06T11:04:56;8.93;;;4.53;;
25868;SDS011;13688;53.154;18.136;2023-04-06T11:10:21;8.05;;;4.40;;
25868;SDS011;13688;53.154;18.136;2023-04-06T11:15:44;12.40;;;4.62;;
25868;SDS011;13688;53.154;18.136;2023-04-06T11:21:06;10.23;;;4.47;;
25868;SDS011;13688;53.154;18.136;2023-04-06T11:26:30;5.97;;;4.50;;
25868;SDS011;13688;53.154;18.136;2023-04-06T11:32:08;7.33;;;4.62;;
25868;SDS011;13688;53.154;18.136;2023-04-06T11:37:37;8.33;;;4.50;;
25868;SDS011;13688;53.154;18.136;2023-04-06T11:43:01;50.38;;;28.92;;
25868;SDS011;13688;53.154;18.136;2023-04-06T11:48:28;11.35;;;5.22;;
25868;SDS011;13688;53.154;18.136;2023-04-06T11:53:55;8.55;;;4.42;;
25868;SDS011;13688;53.154;18.136;2023-04-06T11:59:18;7.22;;;4.40;;
25868;SDS011;13688;53.154;18.136;2023-04-06T12:04:41;7.47;;;4.40;;
25868;SDS011;13688;53.154;18.136;2023-04-06T12:10:03;6.78;;;3.83;;
25868;SDS011;13688;53.154;18.136;2023-04-06T12:15:26;7.37;;;3.98;;
25868;SDS011;13688;53.154;18.136;2023-04-06T12:20:48;6.87;;;3.40;;
25868;SDS011;13688;53.154;18.136;2023-04-06T12:26:11;7.40;;;4.17;;
25868;SDS011;13688;53.154;18.136;2023-04-06T12:31:34;8.48;;;4.40;;
25868;SDS011;13688;53.154;18.136;2023-04-06T12:36:58;8.33;;;4.03;;
25868;SDS011;13688;53.154;18.136;2023-04-06T12:42:20;6.97;;;4.30;;
25868;SDS011;13688;53.154;18.136;2023-04-06T12:47:51;11.88;;;4.53;;
25868;SDS011;13688;53.154;18.136;2023-04-06T12:53:13;11.15;;;4.75;;
25868;SDS011;13688;53.154;18.136;2023-04-06T12:58:36;6.62;;;4.20;;
25868;SDS011;13688;53.154;18.136;2023-04-06T13:04:01;8.50;;;4.40;;
25868;SDS011;13688;53.154;18.136;2023-04-06T13:09:24;10.13;;;4.70;;
25868;SDS011;13688;53.154;18.136;2023-04-06T13:14:46;8.05;;;4.72;;
25868;SDS011;13688;53.154;18.136;2023-04-06T13:20:09;8.88;;;4.40;;
25868;SDS011;13688;53.154;18.136;2023-04-06T13:25:32;9.03;;;4.45;;
25868;SDS011;13688;53.154;18.136;2023-04-06T13:30:57;10.65;;;4.67;;
25868;SDS011;13688;53.154;18.136;2023-04-06T13:36:20;7.30;;;4.15;;
25868;SDS011;13688;53.154;18.136;2023-04-06T13:41:44;9.13;;;4.85;;
25868;SDS011;13688;53.154;18.136;2023-04-06T13:47:06;8.90;;;5.17;;
25868;SDS011;13688;53.154;18.136;2023-04-06T13:52:30;7.60;;;4.97;;
25868;SDS011;13688;53.154;18.136;2023-04-06T13:57:53;8.90;;;5.37;;
25868;SDS011;13688;53.154;18.136;2023-04-06T14:03:16;10.53;;;4.85;;
25868;SDS011;13688;53.154;18.136;2023-04-06T14:08:39;9.98;;;5.08;;
25868;SDS011;13688;53.154;18.136;2023-04-06T14:14:02;10.00;;;5.50;;
25868;SDS011;13688;53.154;18.136;2023-04-06T14:19:25;29.55;;;20.50;;
25868;SDS011;13688;53.154;18.136;2023-04-06T14:24:48;7.80;;;4.67;;
25868;SDS011;13688;53.154;18.136;2023-04-06T14:30:11;6.80;;;4.22;;
25868;SDS011;13688;53.154;18.136;2023-04-06T14:35:33;8.40;;;4.90;;
25868;SDS011;13688;53.154;18.136;2023-04-06T14:40:58;7.05;;;4.10;;
25868;SDS011;13688;53.154;18.136;2023-04-06T14:46:22;10.32;;;4.78;;
25868;SDS011;13688;53.154;18.136;2023-04-06T14:51:45;8.78;;;4.75;;
25868;SDS011;13688;53.154;18.136;2023-04-06T14:57:07;7.53;;;4.33;;
25868;SDS011;13688;53.154;18.136;2023-04-06T15:02:29;7.28;;;4.40;;
25868;SDS011;13688;53.154;18.136;2023-04-06T15:07:52;10.75;;;4.70;;
25868;SDS011;13688;53.154;18.136;2023-04-06T15:13:16;9.00;;;4.60;;
25868;SDS011;13688;53.154;18.136;2023-04-06T15:18:39;8.40;;;4.67;;
25868;SDS011;13688;53.154;18.136;2023-04-06T15:24:01;11.63;;;4.53;;
25868;SDS011;13688;53.154;18.136;2023-04-06T15:29:24;9.10;;;4.53;;
25868;SDS011;13688;53.154;18.136;2023-04-06T15:34:48;8.18;;;4.40;;
25868;SDS011;13688;53.154;18.136;2023-04-06T15:40:14;11.50;;;4.75;;
25868;SDS011;13688;53.154;18.136;2023-04-06T15:45:36;10.25;;;4.90;;
25868;SDS011;13688;53.154;18.136;2023-04-06T15:50:58;9.75;;;5.10;;
25868;SDS011;13688;53.154;18.136;2023-04-06T15:56:21;8.28;;;4.53;;
25868;SDS011;13688;53.154;18.136;2023-04-06T16:01:44;13.35;;;6.22;;
25868;SDS011;13688;53.154;18.136;2023-04-06T16:07:07;9.10;;;4.00;;
25868;SDS011;13688;53.154;18.136;2023-04-06T16:12:29;10.82;;;5.00;;
25868;SDS011;13688;53.154;18.136;2023-04-06T16:17:53;13.40;;;4.25;;
25868;SDS011;13688;53.154;18.136;2023-04-06T16:23:15;8.68;;;4.40;;
25868;SDS011;13688;53.154;18.136;2023-04-06T16:28:38;7.80;;;4.37;;
25868;SDS011;13688;53.154;18.136;2023-04-06T16:34:00;9.70;;;4.47;;
25868;SDS011;13688;53.154;18.136;2023-04-06T16:39:23;8.05;;;4.15;;
25868;SDS011;13688;53.154;18.136;2023-04-06T16:44:46;8.95;;;4.08;;
25868;SDS011;13688;53.154;18.136;2023-04-06T16:50:10;8.18;;;4.22;;
25868;SDS011;13688;53.154;18.136;2023-04-06T16:55:33;5.35;;;3.10;;
25868;SDS011;13688;53.154;18.136;2023-04-06T17:00:56;5.67;;;3.20;;
25868;SDS011;13688;53.154;18.136;2023-04-06T17:06:30;6.27;;;2.90;;
25868;SDS011;13688;53.154;18.136;2023-04-06T17:11:54;4.93;;;2.93;;
25868;SDS011;13688;53.154;18.136;2023-04-06T17:17:21;6.78;;;2.67;;
25868;SDS011;13688;53.154;18.136;2023-04-06T17:22:41;7.20;;;3.27;;
25868;SDS011;13688;53.154;18.136;2023-04-06T17:28:04;8.10;;;3.40;;
25868;SDS011;13688;53.154;18.136;2023-04-06T17:33:26;7.53;;;3.87;;
25868;SDS011;13688;53.154;18.136;2023-04-06T17:38:50;6.17;;;3.95;;
25868;SDS011;13688;53.154;18.136;2023-04-06T17:44:14;10.07;;;3.77;;
25868;SDS011;13688;53.154;18.136;2023-04-06T17:49:37;7.47;;;3.53;;
25868;SDS011;13688;53.154;18.136;2023-04-06T17:55:00;5.92;;;3.47;;
25868;SDS011;13688;53.154;18.136;2023-04-06T18:00:26;6.35;;;2.87;;
25868;SDS011;13688;53.154;18.136;2023-04-06T18:05:48;4.78;;;2.85;;
25868;SDS011;13688;53.154;18.136;2023-04-06T18:11:20;10.30;;;3.72;;
25868;SDS011;13688;53.154;18.136;2023-04-06T18:16:42;4.90;;;3.20;;
25868;SDS011;13688;53.154;18.136;2023-04-06T18:22:05;7.85;;;3.22;;
25868;SDS011;13688;53.154;18.136;2023-04-06T18:27:27;8.28;;;4.28;;
25868;SDS011;13688;53.154;18.136;2023-04-06T18:32:50;7.95;;;3.62;;
25868;SDS011;13688;53.154;18.136;2023-04-06T18:38:12;8.95;;;3.75;;
25868;SDS011;13688;53.154;18.136;2023-04-06T18:43:36;7.67;;;3.80;;
25868;SDS011;13688;53.154;18.136;2023-04-06T18:48:59;7.35;;;3.87;;
25868;SDS011;13688;53.154;18.136;2023-04-06T18:54:23;11.40;;;4.28;;
25868;SDS011;13688;53.154;18.136;2023-04-06T18:59:46;7.40;;;3.42;;
25868;SDS011;13688;53.154;18.136;2023-04-06T19:05:11;9.98;;;3.50;;
25868;SDS011;13688;53.154;18.136;2023-04-06T19:10:34;6.97;;;4.35;;
25868;SDS011;13688;53.154;18.136;2023-04-06T19:15:57;11.55;;;3.40;;
25868;SDS011;13688;53.154;18.136;2023-04-06T19:21:24;5.15;;;2.90;;
25868;SDS011;13688;53.154;18.136;2023-04-06T19:26:47;14.53;;;7.40;;
25868;SDS011;13688;53.154;18.136;2023-04-06T19:32:09;8.08;;;3.52;;
25868;SDS011;13688;53.154;18.136;2023-04-06T19:37:33;5.53;;;3.80;;
25868;SDS011;13688;53.154;18.136;2023-04-06T19:42:55;6.62;;;3.40;;
25868;SDS011;13688;53.154;18.136;2023-04-06T19:48:19;7.00;;;3.35;;
25868;SDS011;13688;53.154;18.136;2023-04-06T19:53:41;5.10;;;3.10;;
25868;SDS011;13688;53.154;18.136;2023-04-06T19:59:04;8.05;;;4.35;;
25868;SDS011;13688;53.154;18.136;2023-04-06T20:04:26;10.45;;;4.12;;
25868;SDS011;13688;53.154;18.136;2023-04-06T20:09:49;5.70;;;3.60;;
25868;SDS011;13688;53.154;18.136;2023-04-06T20:15:12;26.50;;;14.27;;
25868;SDS011;13688;53.154;18.136;2023-04-06T20:20:34;8.55;;;4.80;;
25868;SDS011;13688;53.154;18.136;2023-04-06T20:26:00;9.93;;;5.22;;
25868;SDS011;13688;53.154;18.136;2023-04-06T20:31:25;7.85;;;4.55;;
25868;SDS011;13688;53.154;18.136;2023-04-06T20:36:48;10.90;;;5.12;;
25868;SDS011;13688;53.154;18.136;2023-04-06T20:42:11;8.88;;;5.03;;
25868;SDS011;13688;53.154;18.136;2023-04-06T20:47:34;10.40;;;5.28;;
25868;SDS011;13688;53.154;18.136;2023-04-06T20:52:57;8.98;;;4.65;;
25868;SDS011;13688;53.154;18.136;2023-04-06T20:58:19;6.87;;;4.17;;
25868;SDS011;13688;53.154;18.136;2023-04-06T21:03:42;10.87;;;5.03;;
25868;SDS011;13688;53.154;18.136;2023-04-06T21:09:06;8.50;;;5.20;;
25868;SDS011;13688;53.154;18.136;2023-04-06T21:14:30;8.83;;;5.57;;
25868;SDS011;13688;53.154;18.136;2023-04-06T21:19:53;12.58;;;5.33;;
25868;SDS011;13688;53.154;18.136;2023-04-06T21:25:18;12.13;;;5.53;;
25868;SDS011;13688;53.154;18.136;2023-04-06T21:30:40;9.23;;;5.35;;
25868;SDS011;13688;53.154;18.136;2023-04-06T21:36:03;11.15;;;5.97;;
25868;SDS011;13688;53.154;18.136;2023-04-06T21:41:29;9.78;;;5.58;;
25868;SDS011;13688;53.154;18.136;2023-04-06T21:46:53;10.93;;;5.80;;
25868;SDS011;13688;53.154;18.136;2023-04-06T21:52:16;12.88;;;5.40;;
25868;SDS011;13688;53.154;18.136;2023-04-06T21:57:38;11.07;;;5.97;;
25868;SDS011;13688;53.154;18.136;2023-04-06T22:03:01;11.20;;;5.70;;
25868;SDS011;13688;53.154;18.136;2023-04-06T22:08:23;11.75;;;6.25;;
25868;SDS011;13688;53.154;18.136;2023-04-06T22:13:46;11.70;;;6.83;;
25868;SDS011;13688;53.154;18.136;2023-04-06T22:19:09;12.67;;;7.00;;
25868;SDS011;13688;53.154;18.136;2023-04-06T22:24:32;14.03;;;7.40;;
25868;SDS011;13688;53.154;18.136;2023-04-06T22:29:55;11.80;;;6.60;;
25868;SDS011;13688;53.154;18.136;2023-04-06T22:35:18;10.70;;;6.42;;
25868;SDS011;13688;53.154;18.136;2023-04-06T22:40:40;12.13;;;6.37;;
25868;SDS011;13688;53.154;18.136;2023-04-06T22:46:03;8.05;;;5.62;;
25868;SDS011;13688;53.154;18.136;2023-04-06T22:51:25;13.17;;;5.87;;
25868;SDS011;13688;53.154;18.136;2023-04-06T22:56:48;12.07;;;6.20;;
25868;SDS011;13688;53.154;18.136;2023-04-06T23:02:10;15.10;;;5.95;;
25868;SDS011;13688;53.154;18.136;2023-04-06T23:07:33;12.60;;;6.83;;
25868;SDS011;13688;53.154;18.136;2023-04-06T23:12:55;11.27;;;6.17;;
25868;SDS011;13688;53.154;18.136;2023-04-06T23:18:18;12.20;;;6.13;;
25868;SDS011;13688;53.154;18.136;2023-04-06T23:23:40;13.78;;;6.45;;
25868;SDS011;13688;53.154;18.136;2023-04-06T23:29:05;15.20;;;8.00;;
25868;SDS011;13688;53.154;18.136;2023-04-06T23:34:27;12.07;;;6.78;;
25868;SDS011;13688;53.154;18.136;2023-04-06T23:39:50;17.70;;;8.08;;
25868;SDS011;13688;53.154;18.136;2023-04-06T23:45:12;12.98;;;7.78;;
25868;SDS011;13688;53.154;18.136;2023-04-06T23:50:35;15.15;;;8.60;;
25868;SDS011;13688;53.154;18.136;2023-04-06T23:55:58;17.85;;;8.93;;
